LBF weather

North Platte Regional Airport Lee Bird Field
North Platte, Nebraska, United States

Public forecast

Using degrees Fahrenheit for public forecast. Weather courtesy of forecast.io.

Current aviation weather report (METAR) for North Platte Regional Airport Lee Bird Field

Retrieved 2020/07/04 04:53 UTC (26 minutes ago):

KLBF 040453Z AUTO 10005KT 10SM CLR 21/18 A3013 RMK AO2 SLP172 T02110178

Aviation forecast (TAF) for North Platte Regional Airport Lee Bird Field

Retrieved 2020-07-04 00:28 UTC (5 hours ago):

TAF KLBF 032325Z 0400/0424 13009KT P6SM FEW250 FM040300 15005KT P6SM SCT250 FM041600 16010KT P6SM SCT250